createdAt,value
2023-02-06T00:01:43.011Z,98534.72
2023-02-06T00:04:12.808Z,98530.47
2023-02-06T00:06:41.131Z,98529.72
2023-02-06T00:09:34.674Z,98532.84
2023-02-06T00:12:02.720Z,98528.56
2023-02-06T00:14:30.812Z,98528.94
2023-02-06T00:17:01.016Z,98530.81
2023-02-06T00:19:30.429Z,98534.94
2023-02-06T00:21:58.461Z,98540.03
2023-02-06T00:24:26.499Z,98525.84
2023-02-06T00:26:54.576Z,98533.53
2023-02-06T00:29:22.612Z,98532.47
2023-02-06T00:31:50.695Z,98518.81
2023-02-06T00:34:18.826Z,98525.72
2023-02-06T00:36:48.199Z,98517.34
2023-02-06T00:39:16.259Z,98529.03
2023-02-06T00:41:44.307Z,98526.69
2023-02-06T00:44:12.617Z,98533.94
2023-02-06T00:46:40.762Z,98523.75
2023-02-06T00:49:08.806Z,98524.69
2023-02-06T00:51:38.815Z,98530.38
2023-02-06T00:54:09.963Z,98529.72
2023-02-06T00:56:38.203Z,98536.63
2023-02-06T00:59:06.236Z,98527.41
2023-02-06T01:01:34.322Z,98522.44
2023-02-06T01:04:02.434Z,98528.94
2023-02-06T01:06:31.917Z,98533.31
2023-02-06T01:09:00.249Z,98530.56
2023-02-06T01:11:30.824Z,98534.13
2023-02-06T01:13:59.072Z,98539.91
2023-02-06T01:16:27.135Z,98547.75
2023-02-06T01:18:55.570Z,98547.88
2023-02-06T01:21:26.424Z,98541.44
2023-02-06T01:23:58.837Z,98543.72
2023-02-06T01:26:28.320Z,98545.38
2023-02-06T01:28:59.018Z,98543.97
2023-02-06T01:31:29.921Z,98534.84
2023-02-06T01:34:00.168Z,98545.59
2023-02-06T01:36:28.804Z,98541.13
2023-02-06T01:38:58.053Z,98532.84
2023-02-06T01:41:26.316Z,98534.25
2023-02-06T01:44:17.363Z,98537.56
2023-02-06T01:46:47.874Z,98538.06
2023-02-06T01:49:22.077Z,98538.63
2023-02-06T01:51:52.485Z,98527.44
2023-02-06T01:54:22.041Z,98530.94
2023-02-06T01:56:55.728Z,98531.06
2023-02-06T01:59:26.471Z,98528.31
2023-02-06T02:01:54.614Z,98534.94
2023-02-06T02:04:25.349Z,98538.50
2023-02-06T02:07:06.753Z,98525.72
2023-02-06T02:09:36.164Z,98528.72
2023-02-06T02:12:04.844Z,98529.03
2023-02-06T02:14:34.811Z,98539.72
2023-02-06T02:17:16.249Z,98533.53
2023-02-06T02:20:33.786Z,98522.19
2023-02-06T02:23:27.541Z,98520.19
2023-02-06T02:26:33.542Z,98527.31
2023-02-06T02:29:40.579Z,98523.59
2023-02-06T02:32:54.830Z,98530.25
2023-02-06T02:35:37.669Z,98531.69
2023-02-06T02:38:21.422Z,98526.25
2023-02-06T02:40:58.187Z,98528.13
2023-02-06T02:43:36.510Z,98527.09
2023-02-06T02:46:14.281Z,98524.81
2023-02-06T02:48:46.809Z,98517.44
2023-02-06T02:51:16.391Z,98513.06
2023-02-06T02:53:44.444Z,98515.69
2023-02-06T02:56:19.166Z,98513.88
2023-02-06T02:58:54.500Z,98517.34
2023-02-06T03:01:32.122Z,98519.94
2023-02-06T03:04:11.725Z,98522.09
2023-02-06T03:07:10.337Z,98521.34
2023-02-06T03:09:54.423Z,98514.47
2023-02-06T03:12:33.944Z,98516.94
2023-02-06T03:15:13.079Z,98507.22
2023-02-06T03:17:48.735Z,98507.00
2023-02-06T03:20:18.291Z,98514.59
2023-02-06T03:22:50.431Z,98499.28
2023-02-06T03:25:34.946Z,98509.84
2023-02-06T03:28:06.246Z,98505.25
2023-02-06T03:30:35.610Z,98499.53
2023-02-06T03:33:09.176Z,98498.84
2023-02-06T03:35:39.294Z,98507.13
2023-02-06T03:38:09.579Z,98505.13
2023-02-06T03:40:39.650Z,98507.59
2023-02-06T03:43:08.855Z,98510.34
2023-02-06T03:45:42.129Z,98520.69
2023-02-06T03:48:17.618Z,98510.50
2023-02-06T03:50:50.133Z,98512.75
2023-02-06T03:53:22.242Z,98520.69
2023-02-06T03:55:55.413Z,98522.00
2023-02-06T03:58:24.600Z,98513.75
2023-02-06T04:00:53.753Z,98518.84
2023-02-06T04:03:22.878Z,98518.38
2023-02-06T04:05:51.037Z,98516.69
2023-02-06T04:08:20.486Z,98518.84
2023-02-06T04:10:48.696Z,98518.75
2023-02-06T04:13:18.134Z,98519.06
2023-02-06T04:15:46.115Z,98526.44
2023-02-06T04:18:14.136Z,98529.50
2023-02-06T04:20:42.250Z,98522.53
2023-02-06T04:23:13.073Z,98523.31
2023-02-06T04:25:42.458Z,98506.91
2023-02-06T04:28:13.459Z,98501.81
2023-02-06T04:30:41.666Z,98507.03
2023-02-06T04:33:09.732Z,98513.16
2023-02-06T04:35:38.067Z,98510.56
2023-02-06T04:38:06.289Z,98506.78
2023-02-06T04:40:34.554Z,98506.03
2023-02-06T04:43:03.892Z,98510.31
2023-02-06T04:45:32.291Z,98511.47
2023-02-06T04:48:00.292Z,98515.91
2023-02-06T04:50:31.263Z,98514.41
2023-02-06T04:52:59.590Z,98509.88
2023-02-06T04:55:27.667Z,98511.56
2023-02-06T04:57:55.768Z,98523.97
2023-02-06T05:00:25.313Z,98523.03
2023-02-06T05:02:53.413Z,98522.19
2023-02-06T05:05:21.601Z,98514.84
2023-02-06T05:07:49.716Z,98511.91
2023-02-06T05:10:18.005Z,98508.00
2023-02-06T05:12:46.964Z,98514.63
2023-02-06T05:15:16.169Z,98508.84
2023-02-06T05:17:45.761Z,98511.88
2023-02-06T05:20:14.011Z,98514.16
2023-02-06T05:22:42.289Z,98518.19
2023-02-06T05:25:10.371Z,98514.16
2023-02-06T05:27:38.410Z,98512.59
2023-02-06T05:30:07.522Z,98517.69
2023-02-06T05:32:35.564Z,98533.22
2023-02-06T05:35:05.515Z,98528.63
2023-02-06T05:37:33.729Z,98525.69
2023-02-06T05:40:01.776Z,98522.56
2023-02-06T05:42:29.897Z,98525.50
2023-02-06T05:44:57.958Z,98526.00
2023-02-06T05:47:26.544Z,98523.75
2023-02-06T05:49:54.532Z,98523.63
2023-02-06T05:52:24.047Z,98523.50
2023-02-06T05:54:52.105Z,98523.16
2023-02-06T05:57:20.389Z,98529.09
2023-02-06T05:59:48.581Z,98525.81
2023-02-06T06:02:16.784Z,98525.06
2023-02-06T06:04:45.688Z,98533.31
2023-02-06T06:07:13.984Z,98536.53
2023-02-06T06:09:43.969Z,98536.41
2023-02-06T06:12:12.166Z,98537.97
2023-02-06T06:14:40.143Z,98536.41
2023-02-06T06:17:08.178Z,98535.47
2023-02-06T06:19:36.629Z,98533.09
2023-02-06T06:22:04.856Z,98531.66
2023-02-06T06:24:32.909Z,98530.38
2023-02-06T06:27:03.650Z,98528.59
2023-02-06T06:29:31.839Z,98531.22
2023-02-06T06:31:59.884Z,98530.25
2023-02-06T06:34:28.347Z,98525.59
2023-02-06T06:36:56.384Z,98538.63
2023-02-06T06:39:24.578Z,98553.19
2023-02-06T06:41:52.620Z,98558.41
2023-02-06T06:44:22.396Z,98547.75
2023-02-06T06:46:50.410Z,98548.09
2023-02-06T06:49:18.605Z,98546.69
2023-02-06T06:51:49.685Z,98554.78
2023-02-06T06:54:19.534Z,98551.13
2023-02-06T06:56:47.600Z,98548.28
2023-02-06T06:59:15.762Z,98543.53
2023-02-06T07:01:45.146Z,98543.16
2023-02-06T07:04:13.140Z,98538.50
2023-02-06T07:06:41.208Z,98538.28
2023-02-06T07:09:09.222Z,98529.50
2023-02-06T07:11:37.258Z,98526.91
2023-02-06T07:14:05.621Z,98529.84
2023-02-06T07:16:34.002Z,98539.72
2023-02-06T07:19:03.529Z,98536.03
2023-02-06T07:21:31.529Z,98543.03
2023-02-06T07:23:59.927Z,98540.66
2023-02-06T07:26:27.943Z,98547.31
2023-02-06T07:28:56.069Z,98551.00
2023-02-06T07:31:24.326Z,98555.03
2023-02-06T07:33:52.772Z,98554.22
2023-02-06T07:36:22.138Z,98558.94
2023-02-06T07:38:50.263Z,98562.38
2023-02-06T07:41:18.385Z,98557.84
2023-02-06T07:43:46.383Z,98560.94
2023-02-06T07:46:14.497Z,98558.91
2023-02-06T07:48:42.550Z,98560.72
2023-02-06T07:51:11.127Z,98563.91
2023-02-06T07:53:40.539Z,98565.22
2023-02-06T07:56:14.126Z,98559.72
2023-02-06T07:58:42.666Z,98565.22
2023-02-06T08:01:11.267Z,98556.09
2023-02-06T08:03:39.826Z,98541.19
2023-02-06T08:06:12.214Z,98543.53
2023-02-06T08:08:42.105Z,98547.81
2023-02-06T08:11:13.544Z,98539.38
2023-02-06T08:13:41.720Z,98541.47
2023-02-06T08:16:13.499Z,98545.97
2023-02-06T08:18:42.121Z,98548.69
2023-02-06T08:21:17.862Z,98546.47
2023-02-06T08:23:47.662Z,98545.06
2023-02-06T08:26:18.430Z,98547.06
2023-02-06T08:28:50.661Z,98541.59
2023-02-06T08:31:22.722Z,98530.81
2023-02-06T08:33:51.449Z,98529.03
2023-02-06T08:36:21.521Z,98530.56
2023-02-06T08:38:52.280Z,98525.03
2023-02-06T08:41:24.374Z,98529.25
2023-02-06T08:43:54.933Z,98535.28
2023-02-06T08:46:25.293Z,98537.78
2023-02-06T08:48:57.518Z,98544.09
2023-02-06T08:51:27.831Z,98543.06
2023-02-06T08:53:59.733Z,98542.09
2023-02-06T08:56:29.052Z,98550.16
2023-02-06T08:58:59.524Z,98545.50
2023-02-06T09:01:29.000Z,98542.53
2023-02-06T09:03:58.938Z,98547.31
2023-02-06T09:06:27.549Z,98546.00
2023-02-06T09:08:58.868Z,98541.63
2023-02-06T09:11:28.030Z,98541.03
2023-02-06T09:13:58.366Z,98544.69
2023-02-06T09:16:28.571Z,98548.00
2023-02-06T09:19:02.025Z,98539.41
2023-02-06T09:21:33.610Z,98546.03
2023-02-06T09:24:07.557Z,98547.03
2023-02-06T09:26:44.833Z,98548.50
2023-02-06T09:29:18.457Z,98543.84
2023-02-06T09:31:47.181Z,98541.84
2023-02-06T09:34:15.294Z,98539.13
2023-02-06T09:36:43.457Z,98529.41
2023-02-06T09:39:12.920Z,98534.03
2023-02-06T09:41:43.965Z,98539.59
2023-02-06T09:44:19.318Z,98529.16
2023-02-06T09:46:52.863Z,98519.94
2023-02-06T09:49:26.376Z,98509.84
2023-02-06T09:52:24.797Z,98509.84
2023-02-06T09:55:04.322Z,98507.59
2023-02-06T09:57:44.754Z,98506.41
2023-02-06T10:00:29.610Z,98499.28
2023-02-06T10:03:19.045Z,98491.59
2023-02-06T10:05:54.972Z,98488.63
2023-02-06T10:08:30.108Z,98491.22
2023-02-06T10:11:03.879Z,98482.50
2023-02-06T10:13:37.675Z,98480.59
2023-02-06T10:16:14.929Z,98484.59
2023-02-06T10:18:49.254Z,98476.00
2023-02-06T10:21:29.478Z,98475.50
2023-02-06T10:24:04.468Z,98471.88
2023-02-06T10:26:38.257Z,98473.41
2023-02-06T10:29:10.703Z,98469.47
2023-02-06T10:31:56.278Z,98468.25
2023-02-06T10:35:03.907Z,98464.31
2023-02-06T10:37:57.866Z,98464.94
2023-02-06T10:40:42.408Z,98452.78
2023-02-06T10:43:24.030Z,98457.25
2023-02-06T10:46:02.032Z,98451.69
2023-02-06T10:48:35.641Z,98458.25
2023-02-06T10:51:18.726Z,98456.63
2023-02-06T10:53:52.939Z,98456.13
2023-02-06T10:56:27.400Z,98453.53
2023-02-06T10:59:02.227Z,98448.38
2023-02-06T11:01:36.956Z,98457.44
2023-02-06T11:04:13.143Z,98452.56
2023-02-06T11:06:43.460Z,98452.28
2023-02-06T11:09:12.000Z,98446.56
2023-02-06T11:11:46.675Z,98443.22
2023-02-06T11:14:25.055Z,98446.50
2023-02-06T11:16:54.564Z,98440.75
2023-02-06T11:19:28.205Z,98434.19
2023-02-06T11:22:09.785Z,98431.81
2023-02-06T11:24:38.907Z,98436.63
2023-02-06T11:27:17.951Z,98432.84
2023-02-06T11:29:52.162Z,98421.63
2023-02-06T11:32:35.898Z,98415.31
2023-02-06T11:35:08.576Z,98416.34
2023-02-06T11:37:39.899Z,98404.09
2023-02-06T11:40:27.862Z,98425.06
2023-02-06T11:43:19.252Z,98413.69
2023-02-06T11:45:52.116Z,98418.22
2023-02-06T11:48:42.470Z,98419.50
2023-02-06T11:51:13.827Z,98407.41
2023-02-06T11:53:57.642Z,98418.19
2023-02-06T11:56:28.253Z,98417.31
2023-02-06T11:59:07.112Z,98420.53
2023-02-06T12:01:47.514Z,98409.44
2023-02-06T12:04:23.694Z,98411.50
2023-02-06T12:06:59.537Z,98406.72
2023-02-06T12:09:28.775Z,98404.09
2023-02-06T12:12:02.852Z,98399.28
2023-02-06T12:14:38.284Z,98398.75
2023-02-06T12:17:27.998Z,98390.75
2023-02-06T12:20:05.216Z,98382.63
2023-02-06T12:22:40.327Z,98383.59
2023-02-06T12:25:26.981Z,98378.88
2023-02-06T12:28:00.761Z,98392.63
2023-02-06T12:30:37.555Z,98388.25
2023-02-06T12:33:14.012Z,98377.84
2023-02-06T12:35:47.974Z,98376.00
2023-02-06T12:38:27.212Z,98377.78
2023-02-06T12:41:11.206Z,98381.66
2023-02-06T12:43:42.108Z,98375.09
2023-02-06T12:46:18.052Z,98377.31
2023-02-06T12:48:54.192Z,98362.91
2023-02-06T12:51:28.471Z,98377.53
2023-02-06T12:54:05.498Z,98374.91
2023-02-06T12:56:40.709Z,98351.41
2023-02-06T12:59:56.760Z,98363.69
2023-02-06T13:02:48.371Z,98350.91
2023-02-06T13:05:33.811Z,98340.06
2023-02-06T13:08:10.250Z,98341.72
2023-02-06T13:10:40.312Z,98347.47
2023-02-06T13:13:27.006Z,98342.72
2023-02-06T13:15:57.497Z,98344.72
2023-02-06T13:18:54.133Z,98343.84
2023-02-06T13:21:28.780Z,98334.63
2023-02-06T13:24:16.551Z,98349.19
2023-02-06T13:27:12.875Z,98341.09
2023-02-06T13:29:45.217Z,98336.22
2023-02-06T13:32:46.161Z,98331.75
2023-02-06T13:35:27.355Z,98333.03
2023-02-06T13:38:38.261Z,98345.44
2023-02-06T13:41:30.562Z,98344.72
2023-02-06T13:44:05.126Z,98330.72
2023-02-06T13:47:18.093Z,98339.00
2023-02-06T13:50:25.846Z,98337.84
2023-02-06T13:53:30.616Z,98341.06
2023-02-06T13:56:28.984Z,98334.44
2023-02-06T13:59:05.975Z,98332.44
2023-02-06T14:01:34.799Z,98328.97
2023-02-06T14:04:12.254Z,98329.66
2023-02-06T14:06:58.962Z,98340.16
2023-02-06T14:09:56.837Z,98349.00
2023-02-06T14:12:44.319Z,98333.06
2023-02-06T14:15:32.484Z,98342.56
2023-02-06T14:18:26.952Z,98338.31
2023-02-06T14:21:08.880Z,98341.63
2023-02-06T14:24:00.617Z,98348.72
2023-02-06T14:26:40.776Z,98342.41
2023-02-06T14:29:30.915Z,98355.41
2023-02-06T14:32:22.345Z,98336.88
2023-02-06T14:35:07.039Z,98339.84
2023-02-06T14:37:57.108Z,98348.22
2023-02-06T14:40:29.779Z,98337.94
2023-02-06T14:43:03.325Z,98342.31
2023-02-06T14:45:42.205Z,98351.97
2023-02-06T14:48:21.875Z,98365.13
2023-02-06T14:50:56.325Z,98357.06
2023-02-06T14:53:29.060Z,98356.22
2023-02-06T14:56:10.344Z,98360.63
2023-02-06T14:58:38.421Z,98356.50
2023-02-06T15:01:21.538Z,98340.56
2023-02-06T15:03:54.521Z,98340.56
2023-02-06T15:06:36.530Z,98343.28
2023-02-06T15:09:06.360Z,98353.91
2023-02-06T15:11:35.452Z,98350.69
2023-02-06T15:14:06.562Z,98351.28
2023-02-06T15:16:48.844Z,98346.63
2023-02-06T15:19:20.846Z,98347.59
2023-02-06T15:21:50.131Z,98344.22
2023-02-06T15:24:58.716Z,98340.13
2023-02-06T15:27:31.026Z,98344.00
2023-02-06T15:30:00.384Z,98342.75
2023-02-06T15:32:38.553Z,98331.50
2023-02-06T15:35:22.215Z,98328.22
2023-02-06T15:37:51.291Z,98335.34
2023-02-06T15:40:27.682Z,98330.28
2023-02-06T15:42:56.527Z,98330.97
2023-02-06T15:45:29.644Z,98337.56
2023-02-06T15:48:08.514Z,98330.00
2023-02-06T15:50:37.096Z,98340.00
2023-02-06T15:53:19.094Z,98334.50
2023-02-06T15:55:56.546Z,98336.97
2023-02-06T15:58:26.105Z,98324.09
2023-02-06T16:00:56.667Z,98341.13
2023-02-06T16:03:30.292Z,98338.53
2023-02-06T16:05:58.872Z,98338.88
2023-02-06T16:08:33.043Z,98354.16
2023-02-06T16:11:05.496Z,98355.50
2023-02-06T16:13:34.001Z,98348.38
2023-02-06T16:16:08.322Z,98341.41
2023-02-06T16:18:39.625Z,98335.22
2023-02-06T16:21:28.809Z,98342.19
2023-02-06T16:24:16.452Z,98341.94
2023-02-06T16:26:47.956Z,98347.16
2023-02-06T16:29:26.775Z,98338.53
2023-02-06T16:32:00.971Z,98339.75
2023-02-06T16:34:39.083Z,98335.34
2023-02-06T16:37:12.828Z,98333.94
2023-02-06T16:39:42.995Z,98331.09
2023-02-06T16:42:18.559Z,98327.94
2023-02-06T16:44:50.250Z,98326.44
2023-02-06T16:47:21.895Z,98339.72
2023-02-06T16:49:52.166Z,98339.66
2023-02-06T16:52:25.460Z,98345.78
2023-02-06T16:54:55.637Z,98346.31
2023-02-06T16:57:29.042Z,98350.56
2023-02-06T16:59:57.792Z,98352.09
2023-02-06T17:02:27.802Z,98357.31
2023-02-06T17:04:57.420Z,98351.16
2023-02-06T17:07:31.669Z,98352.66
2023-02-06T17:10:00.280Z,98349.59
2023-02-06T17:12:29.188Z,98350.63
2023-02-06T17:14:58.375Z,98359.31
2023-02-06T17:17:27.142Z,98358.22
2023-02-06T17:19:56.463Z,98353.19
2023-02-06T17:22:24.828Z,98340.84
2023-02-06T17:24:52.856Z,98343.03
2023-02-06T17:27:22.842Z,98344.44
2023-02-06T17:29:53.689Z,98340.75
2023-02-06T17:32:22.973Z,98335.50
2023-02-06T17:34:54.020Z,98331.34
2023-02-06T17:37:23.446Z,98335.91
2023-02-06T17:39:53.100Z,98335.34
2023-02-06T17:42:23.132Z,98338.38
2023-02-06T17:44:51.394Z,98337.66
2023-02-06T17:47:19.442Z,98328.31
2023-02-06T17:49:47.760Z,98328.59
2023-02-06T17:52:16.160Z,98327.94
2023-02-06T17:54:45.729Z,98330.13
2023-02-06T17:57:14.277Z,98326.75
2023-02-06T17:59:42.296Z,98318.53
2023-02-06T18:02:14.605Z,98322.97
2023-02-06T18:04:42.835Z,98315.13
2023-02-06T18:07:10.916Z,98316.22
2023-02-06T18:09:41.034Z,98304.31
2023-02-06T18:12:11.464Z,98302.81
2023-02-06T18:14:40.667Z,98307.31
2023-02-06T18:17:09.336Z,98307.19
2023-02-06T18:19:42.040Z,98302.22
2023-02-06T18:22:11.901Z,98301.53
2023-02-06T18:24:40.627Z,98303.31
2023-02-06T18:27:11.084Z,98302.97
2023-02-06T18:29:49.430Z,98305.63
2023-02-06T18:32:20.477Z,98299.06
2023-02-06T18:34:49.035Z,98297.97
2023-02-06T18:37:17.578Z,98294.19
2023-02-06T18:39:45.601Z,98287.38
2023-02-06T18:42:38.155Z,98295.88
2023-02-06T18:45:06.799Z,98300.13
2023-02-06T18:47:34.786Z,98299.03
2023-02-06T18:50:03.017Z,98302.84
2023-02-06T18:52:31.995Z,98294.72
2023-02-06T18:55:00.148Z,98292.69
2023-02-06T18:57:29.636Z,98293.38
2023-02-06T18:59:58.797Z,98300.50
2023-02-06T19:02:27.449Z,98307.69
2023-02-06T19:04:55.467Z,98301.75
2023-02-06T19:07:23.475Z,98303.13
2023-02-06T19:09:51.505Z,98293.50
2023-02-06T19:12:19.582Z,98289.22
2023-02-06T19:14:49.132Z,98290.19
2023-02-06T19:17:18.162Z,98276.06
2023-02-06T19:19:46.167Z,98280.31
2023-02-06T19:22:14.242Z,98279.22
2023-02-06T19:24:42.874Z,98286.63
2023-02-06T19:27:14.654Z,98288.19
2023-02-06T19:29:43.012Z,98288.84
2023-02-06T19:32:12.491Z,98290.78
2023-02-06T19:34:44.056Z,98298.28
2023-02-06T19:37:16.721Z,98302.38
2023-02-06T19:39:45.324Z,98297.47
2023-02-06T19:42:15.464Z,98305.81
2023-02-06T19:44:44.141Z,98305.66
2023-02-06T19:47:13.495Z,98314.09
2023-02-06T19:49:43.535Z,98314.09
2023-02-06T19:52:14.390Z,98293.31
2023-02-06T19:54:42.632Z,98296.16
2023-02-06T19:57:10.880Z,98291.75
2023-02-06T19:59:39.000Z,98288.97
2023-02-06T20:02:07.081Z,98284.84
2023-02-06T20:04:37.891Z,98290.03
2023-02-06T20:07:06.199Z,98295.84
2023-02-06T20:09:34.519Z,98305.66
2023-02-06T20:12:02.974Z,98307.00
2023-02-06T20:14:31.615Z,98319.22
2023-02-06T20:16:59.760Z,98310.63
2023-02-06T20:19:29.516Z,98323.69
2023-02-06T20:22:00.859Z,98327.97
2023-02-06T20:24:31.991Z,98336.47
2023-02-06T20:27:05.807Z,98328.53
2023-02-06T20:29:36.464Z,98314.63
2023-02-06T20:32:06.221Z,98316.03
2023-02-06T20:34:35.841Z,98315.34
2023-02-06T20:37:05.911Z,98311.06
2023-02-06T20:39:34.552Z,98314.31
2023-02-06T20:42:03.215Z,98294.25
2023-02-06T20:44:31.401Z,98298.97
2023-02-06T20:46:59.431Z,98300.16
2023-02-06T20:49:31.131Z,98313.16
2023-02-06T20:51:59.711Z,98322.97
2023-02-06T20:54:30.756Z,98317.75
2023-02-06T20:57:00.332Z,98316.94
2023-02-06T20:59:29.292Z,98325.81
2023-02-06T21:01:57.286Z,98319.91
2023-02-06T21:04:25.722Z,98311.34
2023-02-06T21:06:53.828Z,98309.69
2023-02-06T21:09:21.903Z,98304.16
2023-02-06T21:11:51.527Z,98302.78
2023-02-06T21:14:20.497Z,98310.88
2023-02-06T21:16:49.221Z,98307.66
2023-02-06T21:19:19.726Z,98295.56
2023-02-06T21:21:48.694Z,98298.13
2023-02-06T21:24:18.312Z,98301.31
2023-02-06T21:26:46.365Z,98296.63
2023-02-06T21:29:16.650Z,98284.88
2023-02-06T21:31:46.383Z,98282.41
2023-02-06T21:34:18.388Z,98283.34
2023-02-06T21:36:47.267Z,98275.00
2023-02-06T21:39:18.385Z,98278.53
2023-02-06T21:41:47.631Z,98279.38
2023-02-06T21:44:16.960Z,98280.22
2023-02-06T21:46:44.989Z,98282.63
2023-02-06T21:49:14.280Z,98285.75
2023-02-06T21:51:42.473Z,98293.28
2023-02-06T21:54:10.999Z,98292.84
2023-02-06T21:56:39.873Z,98296.41
2023-02-06T21:59:09.139Z,98290.66
2023-02-06T22:01:40.839Z,98290.53
2023-02-06T22:04:11.023Z,98289.56
2023-02-06T22:06:39.638Z,98288.59
2023-02-06T22:09:12.579Z,98277.44
2023-02-06T22:11:41.548Z,98273.22
2023-02-06T22:14:13.819Z,98270.09
2023-02-06T22:16:46.415Z,98268.28
2023-02-06T22:19:15.622Z,98263.94
2023-02-06T22:21:43.723Z,98283.25
2023-02-06T22:24:12.950Z,98272.63
2023-02-06T22:26:41.480Z,98277.50
2023-02-06T22:29:13.868Z,98272.75
2023-02-06T22:31:44.904Z,98274.53
2023-02-06T22:34:17.552Z,98274.09
2023-02-06T22:36:45.912Z,98264.00
2023-02-06T22:39:16.010Z,98256.81
2023-02-06T22:41:46.786Z,98262.84
2023-02-06T22:44:17.077Z,98261.66
2023-02-06T22:46:49.918Z,98272.19
2023-02-06T22:49:19.670Z,98273.09
2023-02-06T22:51:48.290Z,98277.22
2023-02-06T22:54:16.533Z,98275.06
2023-02-06T22:56:45.392Z,98271.41
2023-02-06T22:59:16.824Z,98271.75
2023-02-06T23:01:48.734Z,98268.47
2023-02-06T23:04:19.422Z,98270.88
2023-02-06T23:06:48.159Z,98278.56
2023-02-06T23:09:20.309Z,98275.69
2023-02-06T23:11:49.074Z,98280.59
2023-02-06T23:14:18.728Z,98276.22
2023-02-06T23:16:48.875Z,98283.44
2023-02-06T23:19:18.936Z,98286.31
2023-02-06T23:21:49.606Z,98278.50
2023-02-06T23:24:20.149Z,98283.91
2023-02-06T23:26:50.558Z,98289.69
2023-02-06T23:29:20.766Z,98288.22
2023-02-06T23:31:50.801Z,98290.38
2023-02-06T23:34:23.503Z,98291.75
2023-02-06T23:36:52.789Z,98293.25
2023-02-06T23:39:20.966Z,98299.31
2023-02-06T23:41:49.097Z,98308.00
2023-02-06T23:44:17.223Z,98313.09
2023-02-06T23:46:45.398Z,98317.28
2023-02-06T23:49:14.765Z,98314.63
2023-02-06T23:51:42.878Z,98318.44
2023-02-06T23:54:10.999Z,98312.88
2023-02-06T23:56:39.733Z,98309.94
2023-02-06T23:59:07.855Z,98317.06
